Terminal Aerodrome Forecast
Issued by NWS

Home | Current Version | Previous Version | Text Only | Print | Product List | Glossary On
Versions: 1 2 3 4 5 6 7 8 9 10 11 12 13
000
FTUS44 KCRP 131132
TAFLRD
TAF
KLRD 131132Z 1312/1412 VRB04KT P6SM SCT250
     FM131600 17007KT P6SM SCT120 BKN200
     FM141000 12004KT 6SM BR BKN150
      AMD NOT SKED=

USA.gov is the U.S. government's official web portal to all federal, state and local government web resources and services.